createdAt,value
2023-05-10T00:03:01.201Z,14.93
2023-05-10T00:31:43.752Z,14.73
2023-05-10T01:00:20.197Z,14.62
2023-05-10T01:29:06.465Z,14.73
2023-05-10T01:57:49.012Z,14.7
2023-05-10T02:26:35.064Z,14.49
2023-05-10T02:55:20.081Z,14.4
2023-05-10T03:24:04.913Z,14.21
2023-05-10T03:52:39.719Z,14.09
2023-05-10T04:21:29.490Z,13.91
2023-05-10T04:50:07.971Z,14.26
2023-05-10T05:18:31.516Z,14.02
2023-05-10T05:47:29.162Z,14.33
2023-05-10T06:15:58.755Z,14.41
2023-05-10T06:44:29.533Z,14.53
2023-05-10T07:13:12.649Z,14.93
2023-05-10T07:41:49.794Z,15.94
2023-05-10T08:10:32.393Z,17.38
2023-05-10T08:39:29.652Z,16.96
2023-05-10T09:07:30.794Z,16.14
2023-05-10T09:36:10.572Z,16.79
2023-05-10T10:04:39.055Z,17.44
2023-05-10T10:33:27.054Z,18.12
2023-05-10T11:01:33.299Z,19.4
2023-05-10T11:30:07.125Z,19.68
2023-05-10T11:58:43.100Z,19.46
2023-05-10T12:56:01.170Z,19.09
2023-05-10T13:24:40.831Z,20.32
2023-05-10T13:53:11.633Z,19.87
2023-05-10T14:21:46.623Z,20.2
2023-05-10T15:18:33.137Z,18.06
2023-05-10T15:46:57.681Z,17.51
2023-05-10T16:15:13.258Z,16.99
2023-05-10T16:43:56.341Z,17.91
2023-05-10T17:12:21.483Z,17.74
2023-05-10T17:40:51.168Z,17.6
2023-05-10T18:09:24.053Z,16.86
2023-05-10T18:38:00.868Z,16.56
2023-05-10T19:06:19.049Z,16.16
2023-05-10T19:34:49.005Z,15.68
2023-05-10T20:03:22.190Z,15.43
2023-05-10T20:31:56.867Z,15.43
2023-05-10T21:00:31.181Z,15.18
2023-05-10T21:29:16.451Z,15.12
2023-05-10T21:57:50.470Z,14.69
2023-05-10T22:26:33.549Z,14.41
2023-05-10T22:55:05.164Z,14.25
2023-05-10T23:23:49.328Z,14.08
2023-05-10T23:52:25.276Z,14.09
